Terminal Aerodrome Forecast
Issued by NWS Melbourne, FL

Home | Current Version | Previous Version | Text Only | Print | Product List | Glossary On
Versions: 1 2 3 4 5 6 7 8 9 10 11 12 13 14 15
757
FTUS42 KMLB 241726
TAFDAB
TAF
KDAB 241726Z 2418/2518 21006KT P6SM VCSH SCT040 SCT080 BKN250
     FM241900 12008KT P6SM VCTS SCT035CB SCT080 BKN250
     FM250000 18005KT P6SM SCT040 BKN080
     FM250400 19003KT P6SM FEW020 SCT250
     FM251300 20006KT P6SM SCT035 SCT250=

USA.gov is the U.S. government's official web portal to all federal, state and local government web resources and services.